createdAt,value
2019-01-27T00:00:55.520Z,0.00
2019-01-27T00:01:55.454Z,0.00
2019-01-27T00:02:55.389Z,0.00
2019-01-27T00:03:55.326Z,0.00
2019-01-27T00:04:55.304Z,0.00
2019-01-27T00:05:55.203Z,0.00
2019-01-27T00:06:55.141Z,0.00
2019-01-27T00:07:55.075Z,0.00
2019-01-27T00:08:55.012Z,0.00
2019-01-27T00:09:54.948Z,0.00
2019-01-27T00:10:54.886Z,0.00
2019-01-27T00:11:54.826Z,0.00
2019-01-27T00:12:54.761Z,0.00
2019-01-27T00:13:54.698Z,0.00
2019-01-27T00:14:54.635Z,0.00
2019-01-27T00:15:54.575Z,0.00
2019-01-27T00:16:54.510Z,0.00
2019-01-27T00:17:54.447Z,0.00
2019-01-27T00:18:54.387Z,0.00
2019-01-27T00:19:54.321Z,0.00
2019-01-27T00:20:54.258Z,0.00
2019-01-27T00:21:54.199Z,0.00
2019-01-27T00:22:54.132Z,0.00
2019-01-27T00:23:54.070Z,0.00
2019-01-27T00:24:54.008Z,0.00
2019-01-27T00:25:53.944Z,0.00
2019-01-27T00:26:53.882Z,0.00
2019-01-27T00:27:53.821Z,0.00
2019-01-27T00:28:53.759Z,0.00
2019-01-27T00:29:53.694Z,0.00
2019-01-27T00:30:53.631Z,0.00
2019-01-27T00:31:53.568Z,0.00
2019-01-27T00:32:53.506Z,0.00
2019-01-27T00:33:53.442Z,0.00
2019-01-27T00:34:53.382Z,0.00
2019-01-27T00:35:53.316Z,0.00
2019-01-27T00:36:53.259Z,0.00
2019-01-27T00:37:53.192Z,0.00
2019-01-27T00:38:53.132Z,0.00
2019-01-27T00:39:53.066Z,0.00
2019-01-27T00:40:53.003Z,0.00
2019-01-27T00:41:52.940Z,0.00
2019-01-27T00:42:52.877Z,0.00
2019-01-27T00:43:52.818Z,0.00
2019-01-27T00:44:52.752Z,0.00
2019-01-27T00:45:52.689Z,0.00
2019-01-27T00:46:52.625Z,0.00
2019-01-27T00:47:52.563Z,0.00
2019-01-27T00:48:52.503Z,0.00
2019-01-27T00:49:52.438Z,0.00
2019-01-27T00:50:52.376Z,0.00
2019-01-27T00:51:52.312Z,0.00
2019-01-27T00:52:52.250Z,0.00
2019-01-27T00:53:52.189Z,0.00
2019-01-27T00:54:52.124Z,0.00
2019-01-27T00:55:52.062Z,0.00
2019-01-27T00:56:52.002Z,0.00
2019-01-27T00:57:51.937Z,0.00
2019-01-27T00:58:51.873Z,0.00
2019-01-27T00:59:51.810Z,0.00
2019-01-27T01:00:51.748Z,0.00
2019-01-27T01:01:51.685Z,0.00
2019-01-27T01:02:51.621Z,0.00
2019-01-27T01:03:51.559Z,0.00
2019-01-27T01:04:51.496Z,0.00
2019-01-27T01:05:51.435Z,0.00
2019-01-27T01:06:51.370Z,0.00
2019-01-27T01:07:51.310Z,0.00
2019-01-27T01:08:51.246Z,0.00
2019-01-27T01:09:51.182Z,0.00
2019-01-27T01:10:51.119Z,0.00
2019-01-27T01:11:51.057Z,0.00
2019-01-27T01:12:50.996Z,0.00
2019-01-27T01:13:50.934Z,0.00
2019-01-27T01:14:50.871Z,0.00
2019-01-27T01:15:50.811Z,0.00
2019-01-27T01:16:50.745Z,0.00
2019-01-27T01:17:50.683Z,0.00
2019-01-27T01:18:50.618Z,0.00
2019-01-27T01:19:50.556Z,0.00
2019-01-27T01:20:50.493Z,0.00
2019-01-27T01:21:50.431Z,0.00
2019-01-27T01:22:50.367Z,0.00
2019-01-27T01:23:50.305Z,0.00
2019-01-27T01:24:50.245Z,0.00
2019-01-27T01:25:50.180Z,0.00
2019-01-27T01:26:50.117Z,0.00
2019-01-27T01:27:50.054Z,0.00
2019-01-27T01:28:49.991Z,0.00
2019-01-27T01:29:49.931Z,0.00
2019-01-27T01:30:49.865Z,0.00
2019-01-27T01:31:49.802Z,0.00
2019-01-27T01:32:49.740Z,0.00
2019-01-27T01:33:49.678Z,0.00
2019-01-27T01:34:49.615Z,0.00
2019-01-27T01:35:49.553Z,0.00
2019-01-27T01:36:49.493Z,0.00
2019-01-27T01:37:49.468Z,0.00
2019-01-27T01:38:49.363Z,0.00
2019-01-27T01:39:49.302Z,0.00
2019-01-27T01:40:49.238Z,0.00
2019-01-27T01:41:49.177Z,0.00
2019-01-27T01:42:49.116Z,0.00
2019-01-27T01:43:49.049Z,0.00
2019-01-27T01:44:48.989Z,0.00
2019-01-27T01:45:48.925Z,0.00
2019-01-27T01:46:48.861Z,0.00
2019-01-27T01:47:48.803Z,0.00
2019-01-27T01:48:48.736Z,0.00
2019-01-27T01:49:48.674Z,0.00
2019-01-27T01:50:48.610Z,0.00
2019-01-27T01:51:48.547Z,0.00
2019-01-27T01:52:48.486Z,0.00
2019-01-27T01:53:48.424Z,0.00
2019-01-27T01:54:48.360Z,0.00
2019-01-27T01:55:48.298Z,0.00
2019-01-27T01:56:48.235Z,0.00
2019-01-27T01:57:48.172Z,0.00
2019-01-27T01:58:48.110Z,0.00
2019-01-27T01:59:48.047Z,0.00
2019-01-27T02:00:47.985Z,0.00
2019-01-27T02:01:47.922Z,0.00
2019-01-27T02:02:47.859Z,0.00
2019-01-27T02:03:47.937Z,0.00
2019-01-27T02:04:47.741Z,0.00
2019-01-27T02:05:47.670Z,0.00
2019-01-27T02:06:47.608Z,0.00
2019-01-27T02:07:47.548Z,0.00
2019-01-27T02:08:47.487Z,0.00
2019-01-27T02:09:47.420Z,0.00
2019-01-27T02:10:47.362Z,0.00
2019-01-27T02:11:47.294Z,0.00
2019-01-27T02:12:47.233Z,0.00
2019-01-27T02:13:47.169Z,0.00
2019-01-27T02:14:47.107Z,0.00
2019-01-27T02:15:47.049Z,0.00
2019-01-27T02:16:46.981Z,0.00
2019-01-27T02:17:46.919Z,0.00
2019-01-27T02:18:46.855Z,0.00
2019-01-27T02:19:46.792Z,0.00
2019-01-27T02:20:46.730Z,0.00
2019-01-27T02:21:46.680Z,0.00
2019-01-27T02:23:01.247Z,0.00
2019-01-27T02:23:46.549Z,0.00
2019-01-27T02:24:46.481Z,0.00
2019-01-27T02:25:46.420Z,0.00
2019-01-27T02:26:46.353Z,0.00
2019-01-27T02:27:46.294Z,0.00
2019-01-27T02:28:46.231Z,0.00
2019-01-27T02:29:46.167Z,0.00
2019-01-27T02:30:46.104Z,0.00
2019-01-27T02:31:46.040Z,0.00
2019-01-27T02:32:45.978Z,0.00
2019-01-27T02:33:45.918Z,0.00
2019-01-27T02:34:45.852Z,0.00
2019-01-27T02:35:45.791Z,0.00
2019-01-27T02:36:45.731Z,0.00
2019-01-27T02:37:45.665Z,0.00
2019-01-27T02:38:45.604Z,0.00
2019-01-27T02:39:45.541Z,0.00
2019-01-27T02:40:45.477Z,0.00
2019-01-27T02:41:45.416Z,0.00
2019-01-27T02:42:45.353Z,0.00
2019-01-27T02:43:45.291Z,0.00
2019-01-27T02:44:45.226Z,0.00
2019-01-27T02:45:45.165Z,0.00
2019-01-27T02:46:45.103Z,0.00
2019-01-27T02:47:45.039Z,0.00
2019-01-27T02:48:44.978Z,0.00
2019-01-27T02:49:44.914Z,0.00
2019-01-27T02:50:44.850Z,0.00
2019-01-27T02:51:44.787Z,0.00
2019-01-27T02:52:44.726Z,0.00
2019-01-27T02:53:44.663Z,0.00
2019-01-27T02:54:44.601Z,0.00
2019-01-27T02:55:44.537Z,0.00
2019-01-27T02:56:44.474Z,0.00
2019-01-27T02:57:44.415Z,0.00
2019-01-27T02:58:44.350Z,0.00
2019-01-27T02:59:44.287Z,0.00
2019-01-27T03:00:44.229Z,0.00
2019-01-27T03:01:44.162Z,0.00
2019-01-27T03:02:44.099Z,0.00
2019-01-27T03:03:44.037Z,0.00
2019-01-27T03:04:43.984Z,0.00
2019-01-27T03:05:43.916Z,0.00
2019-01-27T03:06:43.861Z,0.00
2019-01-27T03:07:43.787Z,0.00
2019-01-27T03:08:43.724Z,0.00
2019-01-27T03:09:43.667Z,0.00
2019-01-27T03:10:43.640Z,0.00
2019-01-27T03:11:43.535Z,0.00
2019-01-27T03:12:43.477Z,0.00
2019-01-27T03:13:43.411Z,0.00
2019-01-27T03:14:43.347Z,0.00
2019-01-27T03:15:43.285Z,0.00
2019-01-27T03:16:43.223Z,0.00
2019-01-27T03:17:43.161Z,0.00
2019-01-27T03:18:43.098Z,0.00
2019-01-27T03:19:43.037Z,0.00
2019-01-27T03:20:42.978Z,0.00
2019-01-27T03:21:42.909Z,0.00
2019-01-27T03:22:42.846Z,0.00
2019-01-27T03:23:42.784Z,0.00
2019-01-27T03:24:42.724Z,0.00
2019-01-27T03:25:42.661Z,0.00
2019-01-27T03:26:42.596Z,0.00
2019-01-27T03:27:42.534Z,0.00
2019-01-27T03:28:42.472Z,0.00
2019-01-27T03:29:42.414Z,0.00
2019-01-27T03:30:42.348Z,0.00
2019-01-27T03:31:42.285Z,0.00
2019-01-27T03:32:42.223Z,0.00
2019-01-27T03:33:42.162Z,0.00
2019-01-27T03:34:42.098Z,0.00
2019-01-27T03:35:42.034Z,0.00
2019-01-27T03:36:41.973Z,0.00
2019-01-27T03:37:41.912Z,0.00
2019-01-27T03:38:41.846Z,0.00
2019-01-27T03:39:41.784Z,0.00
2019-01-27T03:40:41.719Z,0.00
2019-01-27T03:41:41.661Z,0.00
2019-01-27T03:42:41.595Z,0.00
2019-01-27T03:43:41.533Z,0.00
2019-01-27T03:44:41.469Z,0.00
2019-01-27T03:45:41.408Z,0.00
2019-01-27T03:46:41.344Z,0.00
2019-01-27T03:47:41.284Z,0.00
2019-01-27T03:48:41.219Z,0.00
2019-01-27T03:49:41.161Z,0.00
2019-01-27T03:50:41.095Z,0.00
2019-01-27T03:51:41.036Z,0.00
2019-01-27T03:52:40.970Z,0.00
2019-01-27T03:53:40.909Z,0.00
2019-01-27T03:54:40.844Z,0.00
2019-01-27T03:55:40.780Z,0.00
2019-01-27T03:56:40.718Z,0.00
2019-01-27T03:57:40.660Z,0.00
2019-01-27T03:58:40.593Z,0.00
2019-01-27T03:59:40.531Z,0.00
2019-01-27T04:00:40.471Z,0.00
2019-01-27T04:01:40.407Z,0.00
2019-01-27T04:02:40.343Z,0.00
2019-01-27T04:03:40.283Z,0.00
2019-01-27T04:04:40.219Z,0.00
2019-01-27T04:05:40.157Z,0.00
2019-01-27T04:06:40.095Z,0.00
2019-01-27T04:07:40.034Z,0.00
2019-01-27T04:08:39.968Z,0.00
2019-01-27T04:09:39.906Z,0.00
2019-01-27T04:10:39.844Z,0.00
2019-01-27T04:11:39.783Z,0.00
2019-01-27T04:12:39.718Z,0.00
2019-01-27T04:13:39.679Z,0.00
2019-01-27T04:14:39.593Z,0.00
2019-01-27T04:15:39.531Z,0.00
2019-01-27T04:16:39.468Z,0.00
2019-01-27T04:17:39.405Z,0.00
2019-01-27T04:18:39.342Z,0.00
2019-01-27T04:19:39.279Z,0.00
2019-01-27T04:20:39.220Z,0.00
2019-01-27T04:21:39.160Z,0.00
2019-01-27T04:22:39.094Z,0.00
2019-01-27T04:23:39.030Z,0.00
2019-01-27T04:24:38.967Z,0.00
2019-01-27T04:25:38.905Z,0.00
2019-01-27T04:26:38.842Z,0.00
2019-01-27T04:27:38.785Z,0.00
2019-01-27T04:28:38.721Z,0.00
2019-01-27T04:29:38.655Z,0.00
2019-01-27T04:30:38.593Z,0.00
2019-01-27T04:31:38.529Z,0.00
2019-01-27T04:32:38.470Z,0.00
2019-01-27T04:33:38.405Z,0.00
2019-01-27T04:34:38.342Z,0.00
2019-01-27T04:35:38.279Z,0.00
2019-01-27T04:36:38.217Z,0.00
2019-01-27T04:37:38.154Z,0.00
2019-01-27T04:38:38.091Z,0.00
2019-01-27T04:39:38.031Z,0.00
2019-01-27T04:40:37.967Z,0.00
2019-01-27T04:41:37.907Z,0.00
2019-01-27T04:42:37.841Z,0.00
2019-01-27T04:43:37.779Z,0.00
2019-01-27T04:44:37.717Z,0.00
2019-01-27T04:45:37.654Z,0.00
2019-01-27T04:46:37.594Z,0.00
2019-01-27T04:47:37.528Z,0.00
2019-01-27T04:48:37.470Z,0.00
2019-01-27T04:49:37.405Z,0.00
2019-01-27T04:50:37.340Z,0.00
2019-01-27T04:51:37.279Z,0.00
2019-01-27T04:52:37.218Z,0.00
2019-01-27T04:53:37.158Z,0.00
2019-01-27T04:54:37.091Z,0.00
2019-01-27T04:55:37.029Z,0.00
2019-01-27T04:56:36.974Z,0.00
2019-01-27T04:57:36.906Z,0.00
2019-01-27T04:58:36.843Z,0.00
2019-01-27T04:59:36.778Z,0.00
2019-01-27T05:00:36.723Z,0.00
2019-01-27T05:01:36.655Z,0.00
2019-01-27T05:02:36.594Z,0.00
2019-01-27T05:03:36.529Z,0.00
2019-01-27T05:04:36.467Z,0.00
2019-01-27T05:05:36.405Z,0.00
2019-01-27T05:06:36.340Z,0.00
2019-01-27T05:07:36.280Z,0.00
2019-01-27T05:08:36.216Z,0.00
2019-01-27T05:09:36.153Z,0.00
2019-01-27T05:10:36.090Z,0.00
2019-01-27T05:11:36.029Z,0.00
2019-01-27T05:12:35.967Z,0.00
2019-01-27T05:13:35.903Z,0.00
2019-01-27T05:14:35.840Z,0.00
2019-01-27T05:15:35.783Z,0.00
2019-01-27T05:16:35.716Z,0.00
2019-01-27T05:17:35.653Z,0.00
2019-01-27T05:18:35.595Z,0.00
2019-01-27T05:19:35.532Z,0.00
2019-01-27T05:20:35.467Z,0.00
2019-01-27T05:21:35.404Z,0.00
2019-01-27T05:22:35.343Z,0.00
2019-01-27T05:23:35.280Z,0.00
2019-01-27T05:24:35.217Z,0.00
2019-01-27T05:41:04.448Z,0.00
2019-01-27T05:42:04.347Z,0.00
2019-01-27T05:43:57.129Z,0.00
2019-01-27T05:44:57.056Z,0.00
2019-01-27T05:46:49.863Z,0.00
2019-01-27T05:47:49.766Z,0.00
2019-01-27T05:49:42.573Z,0.00
2019-01-27T05:50:42.472Z,0.00
2019-01-27T05:52:35.279Z,0.00
2019-01-27T05:53:35.185Z,0.00
2019-01-27T05:55:27.964Z,0.00
2019-01-27T05:56:27.892Z,0.00
2019-01-27T05:58:21.219Z,0.00
2019-01-27T05:59:21.101Z,0.00
2019-01-27T06:00:21.037Z,0.00
2019-01-27T06:01:20.974Z,0.00
2019-01-27T06:02:20.911Z,0.00
2019-01-27T06:03:20.852Z,0.00
2019-01-27T06:04:20.792Z,0.00
2019-01-27T06:05:20.724Z,0.00
2019-01-27T06:06:20.669Z,0.00
2019-01-27T06:07:20.600Z,0.00
2019-01-27T06:08:20.538Z,0.00
2019-01-27T06:09:20.474Z,0.00
2019-01-27T06:10:20.412Z,0.00
2019-01-27T06:11:20.353Z,0.00
2019-01-27T06:12:20.287Z,0.00
2019-01-27T06:13:20.227Z,0.00
2019-01-27T06:14:20.162Z,0.00
2019-01-27T06:15:20.100Z,0.00
2019-01-27T06:16:20.040Z,0.00
2019-01-27T06:17:19.976Z,0.00
2019-01-27T06:18:19.913Z,0.00
2019-01-27T06:19:19.851Z,0.00
2019-01-27T06:20:19.788Z,0.00
2019-01-27T06:21:19.727Z,0.00
2019-01-27T06:22:19.671Z,0.00
2019-01-27T06:23:19.601Z,0.00
2019-01-27T06:24:19.544Z,0.00
2019-01-27T06:25:19.479Z,0.00
2019-01-27T06:26:19.414Z,0.00
2019-01-27T06:27:19.351Z,0.00
2019-01-27T06:28:19.290Z,0.00
2019-01-27T06:29:19.227Z,0.00
2019-01-27T06:30:19.163Z,0.00
2019-01-27T06:31:19.105Z,0.00
2019-01-27T06:32:19.041Z,0.00
2019-01-27T06:33:18.976Z,0.00
2019-01-27T06:34:18.915Z,0.00
2019-01-27T06:35:18.856Z,0.00
2019-01-27T06:36:18.790Z,0.00
2019-01-27T06:37:24.652Z,0.00
2019-01-27T06:38:18.667Z,0.00
2019-01-27T06:39:18.602Z,0.00
2019-01-27T06:40:18.574Z,0.00
2019-01-27T06:41:18.478Z,0.00
2019-01-27T06:42:18.423Z,0.00
2019-01-27T06:43:18.353Z,0.00
2019-01-27T06:44:18.291Z,0.00
2019-01-27T06:45:18.230Z,0.00
2019-01-27T06:46:18.176Z,0.00
2019-01-27T06:47:18.104Z,0.00
2019-01-27T06:48:18.041Z,0.00
2019-01-27T06:49:17.978Z,0.00
2019-01-27T06:50:17.917Z,0.00
2019-01-27T06:51:17.855Z,0.00
2019-01-27T06:52:17.791Z,0.00
2019-01-27T06:53:17.730Z,0.00
2019-01-27T06:54:17.668Z,0.00
2019-01-27T06:55:17.613Z,0.00
2019-01-27T06:56:17.546Z,0.00
2019-01-27T06:57:17.481Z,0.00
2019-01-27T06:58:17.418Z,0.00
2019-01-27T06:59:17.356Z,0.00
2019-01-27T07:00:17.297Z,0.00
2019-01-27T07:01:17.231Z,0.00
2019-01-27T07:02:17.166Z,0.00
2019-01-27T07:03:17.111Z,0.00
2019-01-27T07:04:17.045Z,0.00
2019-01-27T07:05:16.982Z,0.00
2019-01-27T07:06:16.916Z,0.00
2019-01-27T07:07:16.856Z,0.00
2019-01-27T07:08:16.795Z,0.00
2019-01-27T07:09:16.731Z,0.00
2019-01-27T07:10:16.667Z,0.00
2019-01-27T07:11:16.607Z,0.00
2019-01-27T07:12:16.543Z,0.00
2019-01-27T07:13:16.485Z,0.00
2019-01-27T07:14:16.418Z,0.00
2019-01-27T07:15:16.357Z,0.00
2019-01-27T07:16:16.293Z,0.00
2019-01-27T07:17:16.232Z,0.00
2019-01-27T07:18:16.168Z,0.00
2019-01-27T07:19:16.106Z,0.00
2019-01-27T07:20:16.045Z,0.00
2019-01-27T07:21:51.781Z,0.00
2019-01-27T07:22:15.919Z,0.00
2019-01-27T07:23:15.858Z,0.00
2019-01-27T07:24:15.797Z,0.00
2019-01-27T07:25:15.739Z,0.00
2019-01-27T07:26:15.670Z,0.00
2019-01-27T07:27:15.608Z,0.00
2019-01-27T07:28:15.546Z,0.00
2019-01-27T07:29:15.485Z,0.00
2019-01-27T07:30:15.424Z,0.00
2019-01-27T07:31:15.360Z,0.00
2019-01-27T07:32:15.300Z,0.00
2019-01-27T07:33:15.234Z,0.00
2019-01-27T07:34:15.170Z,0.00
2019-01-27T07:35:15.111Z,0.00
2019-01-27T07:36:15.046Z,0.00
2019-01-27T07:37:14.989Z,0.00
2019-01-27T07:38:14.923Z,0.00
2019-01-27T07:39:14.859Z,0.00
2019-01-27T07:40:14.797Z,0.00
2019-01-27T07:41:14.736Z,0.00
2019-01-27T07:42:14.673Z,0.00
2019-01-27T07:43:14.609Z,0.00
2019-01-27T07:44:14.550Z,0.00
2019-01-27T07:45:14.486Z,0.00
2019-01-27T07:46:14.428Z,0.00
2019-01-27T07:47:14.371Z,0.00
2019-01-27T07:48:14.300Z,0.00
2019-01-27T07:49:14.240Z,0.00
2019-01-27T07:50:14.175Z,0.00
2019-01-27T07:51:14.112Z,0.00
2019-01-27T07:52:14.052Z,0.00
2019-01-27T07:53:13.988Z,0.00
2019-01-27T07:54:13.924Z,0.00
2019-01-27T07:55:13.862Z,0.00
2019-01-27T07:56:13.801Z,0.00
2019-01-27T07:57:13.739Z,0.00
2019-01-27T07:58:13.677Z,0.00
2019-01-27T07:59:13.612Z,0.00
2019-01-27T08:00:13.555Z,0.00
2019-01-27T08:01:13.489Z,0.00
2019-01-27T08:02:13.431Z,0.00
2019-01-27T08:03:13.363Z,0.00
2019-01-27T08:04:13.301Z,0.00
2019-01-27T08:05:13.239Z,0.00
2019-01-27T08:06:13.177Z,0.00
2019-01-27T08:07:13.114Z,0.00
2019-01-27T08:08:13.052Z,0.00
2019-01-27T08:09:12.989Z,0.00
2019-01-27T08:10:12.927Z,0.00
2019-01-27T08:11:12.864Z,0.00
2019-01-27T08:12:12.802Z,0.00
2019-01-27T08:13:12.743Z,0.00
2019-01-27T08:14:12.680Z,0.00
2019-01-27T08:15:12.615Z,0.00
2019-01-27T08:16:12.553Z,0.00
2019-01-27T08:17:12.492Z,0.00
2019-01-27T08:18:12.437Z,0.00
2019-01-27T08:19:12.367Z,0.00
2019-01-27T08:20:12.304Z,4.00
2019-01-27T08:21:12.242Z,4.00
2019-01-27T08:22:12.179Z,4.00
2019-01-27T08:23:13.701Z,4.00
2019-01-27T08:24:12.055Z,4.00
2019-01-27T08:25:11.993Z,4.00
2019-01-27T08:26:11.937Z,4.00
2019-01-27T08:27:11.869Z,4.00
2019-01-27T08:28:11.805Z,4.00
2019-01-27T08:29:11.743Z,4.00
2019-01-27T08:30:11.685Z,4.00
2019-01-27T08:31:11.619Z,0.00
2019-01-27T08:32:11.556Z,0.00
2019-01-27T08:33:11.495Z,0.00
2019-01-27T08:34:11.431Z,0.00
2019-01-27T08:35:11.370Z,0.00
2019-01-27T08:36:11.307Z,0.00
2019-01-27T08:37:11.245Z,4.00
2019-01-27T08:38:11.180Z,4.00
2019-01-27T08:39:11.119Z,4.00
2019-01-27T08:40:11.057Z,4.00
2019-01-27T08:41:10.996Z,0.00
2019-01-27T08:42:10.937Z,0.00
2019-01-27T08:43:10.871Z,0.00
2019-01-27T08:44:10.808Z,0.00
2019-01-27T08:45:10.747Z,0.00
2019-01-27T08:46:10.685Z,0.00
2019-01-27T08:47:10.624Z,0.00
2019-01-27T08:48:10.562Z,0.00
2019-01-27T08:49:10.498Z,0.00
2019-01-27T08:50:10.440Z,0.00
2019-01-27T08:51:10.372Z,4.00
2019-01-27T08:52:10.312Z,4.00
2019-01-27T08:53:10.248Z,0.00
2019-01-27T08:54:10.187Z,0.00
2019-01-27T08:55:10.124Z,4.00
2019-01-27T08:56:10.061Z,4.00
2019-01-27T08:57:10.004Z,4.00
2019-01-27T08:58:09.942Z,4.00
2019-01-27T08:59:09.874Z,4.00
2019-01-27T09:00:09.812Z,4.00
2019-01-27T09:01:09.753Z,4.00
2019-01-27T09:02:09.690Z,4.00
2019-01-27T09:03:09.628Z,4.00
2019-01-27T09:04:09.564Z,4.00
2019-01-27T09:05:09.502Z,4.00
2019-01-27T09:06:09.439Z,8.00
2019-01-27T09:07:09.376Z,4.00
2019-01-27T09:08:09.315Z,8.00
2019-01-27T09:09:09.252Z,8.00
2019-01-27T09:10:09.193Z,8.00
2019-01-27T09:11:09.131Z,8.00
2019-01-27T09:12:09.065Z,8.00
2019-01-27T09:13:11.352Z,12.00
2019-01-27T09:14:08.941Z,8.00
2019-01-27T09:15:08.882Z,4.00
2019-01-27T09:16:08.817Z,4.00
2019-01-27T09:17:08.754Z,4.00
2019-01-27T09:18:08.691Z,4.00
2019-01-27T09:19:08.630Z,0.00
2019-01-27T09:20:08.568Z,4.00
2019-01-27T09:21:08.505Z,4.00
2019-01-27T09:22:08.447Z,4.00
2019-01-27T09:23:08.380Z,4.00
2019-01-27T09:24:08.325Z,4.00
2019-01-27T09:25:08.257Z,4.00
2019-01-27T09:26:08.195Z,0.00
2019-01-27T09:27:08.131Z,0.00
2019-01-27T09:28:08.072Z,4.00
2019-01-27T09:29:08.009Z,4.00
2019-01-27T09:30:07.944Z,4.00
2019-01-27T09:31:07.882Z,4.00
2019-01-27T09:32:07.821Z,4.00
2019-01-27T09:33:07.761Z,8.00
2019-01-27T09:34:13.150Z,4.00
2019-01-27T09:35:07.633Z,4.00
2019-01-27T09:36:07.573Z,4.00
2019-01-27T09:37:07.513Z,4.00
2019-01-27T09:38:07.448Z,4.00
2019-01-27T09:39:07.387Z,4.00
2019-01-27T09:40:07.323Z,4.00
2019-01-27T09:41:07.263Z,4.00
2019-01-27T09:42:07.199Z,4.00
2019-01-27T09:43:07.136Z,4.00
2019-01-27T09:44:07.080Z,4.00
2019-01-27T09:45:07.013Z,4.00
2019-01-27T09:46:11.417Z,4.00
2019-01-27T09:47:06.888Z,4.00
2019-01-27T09:48:06.826Z,8.00
2019-01-27T09:49:06.763Z,8.00
2019-01-27T09:50:06.704Z,8.00
2019-01-27T09:51:06.642Z,4.00
2019-01-27T09:52:06.578Z,4.00
2019-01-27T09:53:06.515Z,8.00
2019-01-27T09:54:06.451Z,8.00
2019-01-27T09:55:06.392Z,4.00
2019-01-27T09:56:06.329Z,8.00
2019-01-27T09:57:06.268Z,8.00
2019-01-27T09:58:06.204Z,4.00
2019-01-27T09:59:06.141Z,8.00
2019-01-27T10:00:06.086Z,16.00
2019-01-27T10:01:06.018Z,36.00
2019-01-27T10:02:05.955Z,44.00
2019-01-27T10:03:06.811Z,8.00
2019-01-27T10:04:05.831Z,8.00
2019-01-27T10:05:05.770Z,8.00
2019-01-27T10:06:05.710Z,8.00
2019-01-27T10:07:05.645Z,12.00
2019-01-27T10:08:05.582Z,36.00
2019-01-27T10:09:05.520Z,16.00
2019-01-27T10:10:05.458Z,24.00
2019-01-27T10:11:05.396Z,44.00
2019-01-27T10:12:05.334Z,20.00
2019-01-27T10:13:05.274Z,12.00
2019-01-27T10:14:05.209Z,20.00
2019-01-27T10:15:05.148Z,12.00
2019-01-27T10:16:05.087Z,12.00
2019-01-27T10:17:05.024Z,8.00
2019-01-27T10:18:04.963Z,8.00
2019-01-27T10:19:04.903Z,4.00
2019-01-27T10:20:04.836Z,8.00
2019-01-27T10:21:04.775Z,8.00
2019-01-27T10:22:04.712Z,8.00
2019-01-27T10:23:04.650Z,8.00
2019-01-27T10:24:04.588Z,8.00
2019-01-27T10:25:04.528Z,8.00
2019-01-27T10:26:04.463Z,8.00
2019-01-27T10:27:04.405Z,4.00
2019-01-27T10:28:04.340Z,12.00
2019-01-27T10:29:04.283Z,8.00
2019-01-27T10:30:04.216Z,4.00
2019-01-27T10:31:04.161Z,4.00
2019-01-27T10:32:04.093Z,8.00
2019-01-27T10:33:04.031Z,4.00
2019-01-27T10:34:03.968Z,4.00
2019-01-27T10:35:03.906Z,4.00
2019-01-27T10:36:03.844Z,4.00
2019-01-27T10:37:03.782Z,4.00
2019-01-27T10:38:03.723Z,4.00
2019-01-27T10:39:03.659Z,4.00
2019-01-27T10:40:09.125Z,4.00
2019-01-27T10:41:03.535Z,4.00
2019-01-27T10:42:03.476Z,4.00
2019-01-27T10:43:03.409Z,8.00
2019-01-27T10:44:03.347Z,4.00
2019-01-27T10:45:03.285Z,4.00
2019-01-27T10:46:03.222Z,4.00
2019-01-27T10:47:03.162Z,4.00
2019-01-27T10:48:03.099Z,0.00
2019-01-27T10:49:03.038Z,4.00
2019-01-27T10:50:02.979Z,4.00
2019-01-27T10:51:02.913Z,0.00
2019-01-27T10:52:02.854Z,4.00
2019-01-27T10:53:02.790Z,4.00
2019-01-27T10:54:02.730Z,4.00
2019-01-27T10:55:02.664Z,4.00
2019-01-27T10:56:02.604Z,0.00
2019-01-27T10:57:02.543Z,4.00
2019-01-27T10:58:02.478Z,4.00
2019-01-27T10:59:02.416Z,4.00
2019-01-27T11:00:02.355Z,4.00
2019-01-27T11:01:02.293Z,4.00
2019-01-27T11:02:02.230Z,4.00
2019-01-27T11:03:02.168Z,4.00
2019-01-27T11:04:02.109Z,4.00
2019-01-27T11:05:02.046Z,0.00
2019-01-27T11:06:01.985Z,4.00
2019-01-27T11:07:01.923Z,4.00
2019-01-27T11:08:01.893Z,4.00
2019-01-27T11:09:01.797Z,12.00
2019-01-27T11:10:01.736Z,8.00
2019-01-27T11:11:01.676Z,8.00
2019-01-27T11:12:01.611Z,20.00
2019-01-27T11:13:01.549Z,24.00
2019-01-27T11:14:01.485Z,12.00
2019-01-27T11:15:02.325Z,12.00
2019-01-27T11:16:01.412Z,8.00
2019-01-27T11:17:01.306Z,8.00
2019-01-27T11:18:01.251Z,8.00
2019-01-27T11:19:01.178Z,8.00
2019-01-27T11:20:01.115Z,16.00
2019-01-27T11:21:01.055Z,12.00
2019-01-27T11:22:00.989Z,12.00
2019-01-27T11:23:00.928Z,12.00
2019-01-27T11:24:00.868Z,8.00
2019-01-27T11:25:00.806Z,8.00
2019-01-27T11:26:01.876Z,4.00
2019-01-27T11:27:00.680Z,4.00
2019-01-27T11:28:00.619Z,4.00
2019-01-27T11:29:00.559Z,4.00
2019-01-27T11:30:00.504Z,8.00
2019-01-27T11:31:00.444Z,4.00
2019-01-27T11:32:00.377Z,0.00
2019-01-27T11:33:00.316Z,0.00
2019-01-27T11:34:00.248Z,4.00
2019-01-27T11:35:00.257Z,4.00
2019-01-27T11:36:00.124Z,8.00
2019-01-27T11:37:00.064Z,4.00
2019-01-27T11:37:59.999Z,4.00
2019-01-27T11:38:59.937Z,4.00
2019-01-27T11:39:59.876Z,0.00
2019-01-27T11:40:59.815Z,4.00
2019-01-27T11:41:59.760Z,4.00
2019-01-27T11:42:59.695Z,4.00
2019-01-27T11:43:59.627Z,8.00
2019-01-27T11:44:59.566Z,4.00
2019-01-27T11:45:59.502Z,4.00
2019-01-27T11:46:59.442Z,4.00
2019-01-27T11:47:59.385Z,4.00
2019-01-27T11:48:59.319Z,4.00
2019-01-27T11:49:59.259Z,4.00
2019-01-27T11:50:59.197Z,4.00
2019-01-27T11:51:59.132Z,4.00
2019-01-27T11:52:59.071Z,4.00
2019-01-27T11:53:59.008Z,4.00
2019-01-27T11:54:58.948Z,4.00
2019-01-27T11:55:58.889Z,4.00
2019-01-27T11:56:58.827Z,4.00
2019-01-27T11:57:58.778Z,8.00
2019-01-27T11:58:58.702Z,4.00
2019-01-27T11:59:58.637Z,4.00
2019-01-27T12:00:58.575Z,4.00
2019-01-27T12:01:58.515Z,8.00
2019-01-27T12:02:58.452Z,8.00
2019-01-27T12:03:58.391Z,8.00
2019-01-27T12:04:58.329Z,8.00
2019-01-27T12:05:58.265Z,28.00
2019-01-27T12:06:58.204Z,16.00
2019-01-27T12:07:58.142Z,8.00
2019-01-27T12:08:58.081Z,8.00
2019-01-27T12:09:58.018Z,8.00
2019-01-27T12:10:57.957Z,4.00
2019-01-27T12:11:57.895Z,8.00
2019-01-27T12:12:57.833Z,8.00
2019-01-27T12:13:57.772Z,4.00
2019-01-27T12:14:57.713Z,4.00
2019-01-27T12:15:57.647Z,4.00
2019-01-27T12:16:57.586Z,8.00
2019-01-27T12:17:57.524Z,8.00
2019-01-27T12:18:57.462Z,4.00
2019-01-27T12:19:57.417Z,4.00
2019-01-27T12:20:57.340Z,4.00
2019-01-27T12:21:57.278Z,4.00
2019-01-27T12:22:57.232Z,4.00
2019-01-27T12:23:57.153Z,4.00
2019-01-27T12:24:57.092Z,4.00
2019-01-27T12:25:57.036Z,8.00
2019-01-27T12:26:56.970Z,4.00
2019-01-27T12:27:56.910Z,4.00
2019-01-27T12:28:56.845Z,4.00
2019-01-27T12:29:56.783Z,4.00
2019-01-27T12:30:56.721Z,4.00
2019-01-27T12:31:56.663Z,8.00
2019-01-27T12:32:56.601Z,8.00
2019-01-27T12:33:56.537Z,8.00
2019-01-27T12:34:56.474Z,8.00
2019-01-27T12:35:56.413Z,8.00
2019-01-27T12:36:56.356Z,8.00
2019-01-27T12:37:56.296Z,4.00
2019-01-27T12:38:56.233Z,8.00
2019-01-27T12:39:56.167Z,8.00
2019-01-27T12:40:56.109Z,8.00
2019-01-27T12:41:56.040Z,8.00
2019-01-27T12:42:55.983Z,4.00
2019-01-27T12:43:55.918Z,4.00
2019-01-27T12:44:55.856Z,8.00
2019-01-27T12:45:55.795Z,8.00
2019-01-27T12:46:55.734Z,12.00
2019-01-27T12:47:55.670Z,20.00
2019-01-27T12:48:55.610Z,24.00
2019-01-27T12:49:55.546Z,32.00
2019-01-27T12:50:55.485Z,32.00
2019-01-27T12:51:55.427Z,20.00
2019-01-27T12:52:55.365Z,20.00
2019-01-27T12:53:55.299Z,12.00
2019-01-27T12:54:55.237Z,24.00
2019-01-27T12:55:55.176Z,8.00
2019-01-27T12:56:55.116Z,28.00
2019-01-27T12:57:55.051Z,16.00
2019-01-27T12:58:54.990Z,4.00
2019-01-27T12:59:54.930Z,4.00
2019-01-27T13:00:54.871Z,4.00
2019-01-27T13:01:54.805Z,4.00
2019-01-27T13:02:54.746Z,8.00
2019-01-27T13:03:54.685Z,4.00
2019-01-27T13:04:54.620Z,8.00
2019-01-27T13:05:54.558Z,4.00
2019-01-27T13:06:54.496Z,4.00
2019-01-27T13:07:54.435Z,4.00
2019-01-27T13:08:54.374Z,4.00
2019-01-27T13:09:54.313Z,4.00
2019-01-27T13:10:54.251Z,4.00
2019-01-27T13:11:54.188Z,4.00
2019-01-27T13:12:54.127Z,4.00
2019-01-27T13:13:54.064Z,4.00
2019-01-27T13:14:54.003Z,8.00
2019-01-27T13:15:53.944Z,8.00
2019-01-27T13:16:53.880Z,8.00
2019-01-27T13:17:53.819Z,4.00
2019-01-27T13:18:53.757Z,8.00
2019-01-27T13:19:53.981Z,4.00
2019-01-27T13:20:53.633Z,4.00
2019-01-27T13:21:53.570Z,8.00
2019-01-27T13:22:53.511Z,4.00
2019-01-27T13:23:53.448Z,4.00
2019-01-27T13:24:53.393Z,0.00
2019-01-27T13:25:53.324Z,4.00
2019-01-27T13:26:53.264Z,4.00
2019-01-27T13:27:53.201Z,4.00
2019-01-27T13:28:53.141Z,4.00
2019-01-27T13:29:53.079Z,4.00
2019-01-27T13:30:53.018Z,4.00
2019-01-27T13:31:52.958Z,0.00
2019-01-27T13:32:52.893Z,0.00
2019-01-27T13:33:52.833Z,0.00
2019-01-27T13:34:56.314Z,0.00
2019-01-27T13:35:52.709Z,4.00
2019-01-27T13:36:52.649Z,4.00
2019-01-27T13:37:52.839Z,0.00